Terminal Aerodrome Forecast
Issued by NWS

Home | Current Version | Previous Version | Text Only | Print | Product List | Glossary On
Versions: 1 2 3 4 5 6 7 8 9 10 11 12 13 14 15 16 17 18 19 20 21 22 23
322
FTUS41 KOKX 240835 AAB
TAFHPN
TAF AMD
KHPN 240835Z 2409/2506 VRB02KT P6SM BKN250
      TEMPO 2409/2411 5SM BR SCT002
     FM241500 11004KT P6SM BKN150
     FM241900 11007KT P6SM BKN100
     FM242300 11007KT P6SM SCT050 BKN080
     FM250300 07005KT P6SM -RA SCT015 OVC050
      AMD NOT SKED=

USA.gov is the U.S. government's official web portal to all federal, state and local government web resources and services.